createdAt,value
2023-08-23T00:01:23.172Z,1.90
2023-08-23T00:03:48.358Z,1.70
2023-08-23T00:06:17.560Z,1.70
2023-08-23T00:08:46.426Z,1.52
2023-08-23T00:11:15.068Z,1.80
2023-08-23T00:13:45.098Z,1.50
2023-08-23T00:16:13.854Z,1.70
2023-08-23T00:18:43.503Z,1.80
2023-08-23T00:21:12.347Z,1.72
2023-08-23T00:23:41.833Z,2.17
2023-08-23T00:26:13.330Z,2.10
2023-08-23T00:28:43.053Z,2.00
2023-08-23T00:31:12.751Z,2.80
2023-08-23T00:33:42.847Z,2.77
2023-08-23T00:36:11.822Z,3.10
2023-08-23T00:38:41.133Z,3.10
2023-08-23T00:41:10.669Z,2.85
2023-08-23T00:43:39.369Z,3.30
2023-08-23T00:46:09.211Z,3.40
2023-08-23T00:48:38.790Z,2.83
2023-08-23T00:51:09.398Z,3.10
2023-08-23T00:53:38.817Z,3.17
2023-08-23T00:56:08.446Z,3.08
2023-08-23T00:58:38.628Z,3.02
2023-08-23T01:01:07.820Z,3.15
2023-08-23T01:03:36.953Z,3.10
2023-08-23T01:06:32.440Z,3.27
2023-08-23T01:09:44.638Z,2.75
2023-08-23T01:12:37.125Z,3.47
2023-08-23T01:15:12.315Z,3.95
2023-08-23T01:17:44.670Z,4.15
2023-08-23T01:20:13.827Z,3.67
2023-08-23T01:22:54.768Z,3.40
2023-08-23T01:25:23.445Z,3.37
2023-08-23T01:27:56.937Z,3.60
2023-08-23T01:30:26.329Z,3.42
2023-08-23T01:33:03.727Z,3.20
2023-08-23T01:35:38.709Z,3.20
2023-08-23T01:38:08.127Z,3.00
2023-08-23T01:40:37.804Z,2.90
2023-08-23T01:43:06.524Z,2.58
2023-08-23T01:45:35.485Z,2.45
2023-08-23T01:48:05.991Z,2.75
2023-08-23T01:50:35.640Z,3.00
2023-08-23T01:53:05.550Z,2.72
2023-08-23T01:55:35.065Z,3.95
2023-08-23T01:58:05.649Z,4.30
2023-08-23T02:00:34.722Z,4.05
2023-08-23T02:03:06.249Z,4.08
2023-08-23T02:05:35.161Z,4.10
2023-08-23T02:08:04.372Z,3.83
2023-08-23T02:10:34.866Z,4.05
2023-08-23T02:13:06.222Z,4.47
2023-08-23T02:15:35.440Z,3.80
2023-08-23T02:18:06.323Z,3.50
2023-08-23T02:20:36.181Z,3.80
2023-08-23T02:23:05.794Z,4.25
2023-08-23T02:25:34.948Z,4.30
2023-08-23T02:28:05.577Z,4.47
2023-08-23T02:30:34.232Z,5.25
2023-08-23T02:33:04.738Z,4.40
2023-08-23T02:35:34.391Z,5.05
2023-08-23T02:38:03.282Z,4.80
2023-08-23T02:40:33.284Z,4.35
2023-08-23T02:43:03.597Z,4.30
2023-08-23T02:45:34.478Z,4.78
2023-08-23T02:48:05.012Z,4.78
2023-08-23T02:50:34.282Z,4.37
2023-08-23T02:53:03.465Z,4.62
2023-08-23T02:55:37.756Z,4.90
2023-08-23T02:58:07.854Z,4.72
2023-08-23T03:00:37.597Z,4.87
2023-08-23T03:03:06.965Z,5.03
2023-08-23T03:05:36.182Z,4.47
2023-08-23T03:08:05.403Z,4.35
2023-08-23T03:10:35.191Z,4.05
2023-08-23T03:13:05.844Z,4.58
2023-08-23T03:15:35.499Z,4.17
2023-08-23T03:18:05.266Z,4.12
2023-08-23T03:20:35.315Z,4.53
2023-08-23T03:23:06.775Z,4.58
2023-08-23T03:25:36.302Z,4.45
2023-08-23T03:28:05.814Z,4.47
2023-08-23T03:30:34.574Z,4.78
2023-08-23T03:33:04.085Z,4.58
2023-08-23T03:35:34.016Z,4.75
2023-08-23T03:38:04.318Z,5.17
2023-08-23T03:40:40.485Z,5.00
2023-08-23T03:43:10.060Z,4.83
2023-08-23T03:45:49.878Z,4.58
2023-08-23T03:48:24.593Z,5.33
2023-08-23T03:50:53.869Z,4.67
2023-08-23T03:53:24.521Z,4.50
2023-08-23T03:55:55.688Z,4.55
2023-08-23T03:58:25.011Z,4.40
2023-08-23T04:00:54.813Z,4.08
2023-08-23T04:03:25.926Z,4.30
2023-08-23T04:05:54.913Z,4.22
2023-08-23T04:08:24.233Z,4.15
2023-08-23T04:10:53.636Z,4.08
2023-08-23T04:13:24.151Z,4.05
2023-08-23T04:15:53.415Z,3.77
2023-08-23T04:18:22.700Z,3.70
2023-08-23T04:21:01.457Z,3.60
2023-08-23T04:23:31.320Z,3.30
2023-08-23T04:26:00.898Z,3.55
2023-08-23T04:28:30.411Z,3.55
2023-08-23T04:31:04.014Z,4.17
2023-08-23T04:33:37.053Z,2.42
2023-08-23T04:36:07.035Z,2.42
2023-08-23T04:38:35.897Z,2.67
2023-08-23T04:41:05.798Z,3.40
2023-08-23T04:43:36.511Z,2.92
2023-08-23T04:46:07.989Z,2.50
2023-08-23T04:48:37.818Z,2.55
2023-08-23T04:51:10.398Z,2.58
2023-08-23T04:53:39.756Z,2.40
2023-08-23T04:56:09.410Z,2.67
2023-08-23T04:58:39.629Z,2.37
2023-08-23T05:01:09.177Z,2.50
2023-08-23T05:03:40.028Z,2.60
2023-08-23T05:06:10.330Z,2.40
2023-08-23T05:08:40.549Z,3.20
2023-08-23T05:11:15.213Z,2.00
2023-08-23T05:13:44.872Z,3.08
2023-08-23T05:16:14.295Z,2.62
2023-08-23T05:18:43.874Z,2.20
2023-08-23T05:21:35.322Z,2.50
2023-08-23T05:24:05.046Z,2.45
2023-08-23T05:26:35.322Z,2.40
2023-08-23T05:29:04.547Z,2.70
2023-08-23T05:31:35.127Z,2.20
2023-08-23T05:34:04.398Z,2.47
2023-08-23T05:36:34.361Z,2.42
2023-08-23T05:39:04.433Z,2.20
2023-08-23T05:41:33.739Z,2.08
2023-08-23T05:44:03.042Z,2.50
2023-08-23T05:46:32.413Z,1.67
2023-08-23T05:49:03.122Z,1.87
2023-08-23T05:51:33.191Z,1.60
2023-08-23T05:54:04.069Z,2.22
2023-08-23T05:56:33.366Z,1.75
2023-08-23T05:59:02.869Z,2.15
2023-08-23T06:01:32.316Z,1.60
2023-08-23T06:04:01.774Z,2.90
2023-08-23T06:06:31.800Z,2.72
2023-08-23T06:09:04.067Z,3.05
2023-08-23T06:11:33.810Z,2.35
2023-08-23T06:14:22.039Z,2.30
2023-08-23T06:16:52.619Z,2.10
2023-08-23T06:19:22.445Z,1.95
2023-08-23T06:21:51.702Z,2.10
2023-08-23T06:24:21.540Z,2.20
2023-08-23T06:26:51.471Z,1.50
2023-08-23T06:29:21.702Z,1.92
2023-08-23T06:31:51.725Z,1.98
2023-08-23T06:34:22.563Z,1.80
2023-08-23T06:36:52.144Z,1.77
2023-08-23T06:39:32.757Z,2.95
2023-08-23T06:41:54.283Z,2.10
2023-08-23T06:44:23.876Z,2.92
2023-08-23T06:46:52.881Z,1.80
2023-08-23T06:49:22.709Z,1.50
2023-08-23T06:51:52.202Z,1.67
2023-08-23T06:54:22.398Z,1.82
2023-08-23T06:56:50.929Z,1.80
2023-08-23T06:59:21.457Z,1.50
2023-08-23T07:01:50.391Z,1.80
2023-08-23T07:04:20.567Z,2.50
2023-08-23T07:06:49.364Z,2.00
2023-08-23T07:09:18.513Z,2.83
2023-08-23T07:11:48.717Z,1.85
2023-08-23T07:14:17.642Z,1.57
2023-08-23T07:16:46.263Z,1.52
2023-08-23T07:19:15.515Z,1.45
2023-08-23T07:21:45.031Z,1.60
2023-08-23T07:24:14.746Z,2.25
2023-08-23T07:26:45.462Z,1.62
2023-08-23T07:29:16.160Z,1.45
2023-08-23T07:31:46.688Z,1.30
2023-08-23T07:34:17.345Z,1.80
2023-08-23T07:36:46.266Z,1.60
2023-08-23T07:39:16.351Z,1.62
2023-08-23T07:41:46.462Z,2.00
2023-08-23T07:44:15.171Z,1.92
2023-08-23T07:46:44.513Z,1.85
2023-08-23T07:49:15.653Z,2.33
2023-08-23T07:51:45.255Z,1.55
2023-08-23T07:54:15.014Z,1.60
2023-08-23T07:56:45.074Z,1.72
2023-08-23T07:59:14.497Z,2.00
2023-08-23T08:01:44.642Z,1.80
2023-08-23T08:04:14.890Z,2.10
2023-08-23T08:06:44.424Z,2.10
2023-08-23T08:09:14.802Z,2.17
2023-08-23T08:11:44.683Z,2.30
2023-08-23T08:14:15.209Z,1.82
2023-08-23T08:16:45.935Z,2.15
2023-08-23T08:19:14.652Z,2.00
2023-08-23T08:21:45.699Z,2.40
2023-08-23T08:24:15.785Z,2.33
2023-08-23T08:26:44.447Z,2.50
2023-08-23T08:29:14.006Z,2.30
2023-08-23T08:31:42.694Z,2.37
2023-08-23T08:34:11.267Z,2.30
2023-08-23T08:36:41.517Z,1.60
2023-08-23T08:39:10.401Z,1.70
2023-08-23T08:41:41.807Z,1.67
2023-08-23T08:44:12.334Z,1.65
2023-08-23T08:46:43.019Z,1.40
2023-08-23T08:49:12.514Z,1.80
2023-08-23T08:51:42.852Z,1.47
2023-08-23T08:54:12.123Z,1.40
2023-08-23T08:56:41.311Z,2.00
2023-08-23T08:59:11.096Z,1.85
2023-08-23T09:01:40.113Z,1.42
2023-08-23T09:04:09.262Z,1.80
2023-08-23T09:06:38.358Z,1.80
2023-08-23T09:09:08.403Z,1.40
2023-08-23T09:11:37.824Z,1.72
2023-08-23T09:14:21.623Z,2.22
2023-08-23T09:16:50.477Z,2.00
2023-08-23T09:19:20.273Z,1.65
2023-08-23T09:21:52.317Z,1.67
2023-08-23T09:24:22.219Z,1.47
2023-08-23T09:26:50.980Z,1.77
2023-08-23T09:29:20.602Z,1.70
2023-08-23T09:31:49.740Z,3.30
2023-08-23T09:34:18.977Z,2.25
2023-08-23T09:36:48.514Z,2.15
2023-08-23T09:39:19.219Z,1.57
2023-08-23T09:42:00.724Z,1.50
2023-08-23T09:44:21.137Z,1.80
2023-08-23T09:46:50.319Z,1.92
2023-08-23T09:49:19.114Z,1.70
2023-08-23T09:51:49.255Z,1.45
2023-08-23T09:54:45.920Z,1.65
2023-08-23T09:57:09.206Z,1.47
2023-08-23T09:59:38.947Z,1.37
2023-08-23T10:02:07.682Z,1.85
2023-08-23T10:04:39.120Z,1.98
2023-08-23T10:07:09.090Z,1.67
2023-08-23T10:09:38.297Z,1.60
2023-08-23T10:12:09.235Z,1.40
2023-08-23T10:14:50.343Z,1.42
2023-08-23T10:17:20.976Z,1.70
2023-08-23T10:19:50.906Z,1.30
2023-08-23T10:22:20.687Z,1.52
2023-08-23T10:24:51.099Z,1.47
2023-08-23T10:27:21.476Z,1.20
2023-08-23T10:29:51.889Z,2.02
2023-08-23T10:32:21.138Z,1.70
2023-08-23T10:34:50.956Z,1.62
2023-08-23T10:37:26.365Z,1.85
2023-08-23T10:40:02.778Z,1.70
2023-08-23T10:42:32.633Z,1.40
2023-08-23T10:45:05.380Z,1.60
2023-08-23T10:47:38.257Z,1.60
2023-08-23T10:50:08.485Z,1.40
2023-08-23T10:52:38.747Z,1.42
2023-08-23T10:55:08.895Z,1.57
2023-08-23T10:57:37.836Z,1.70
2023-08-23T11:00:08.482Z,1.70
2023-08-23T11:02:38.394Z,2.00
2023-08-23T11:05:09.010Z,1.80
2023-08-23T11:07:38.154Z,1.42
2023-08-23T11:10:10.344Z,1.87
2023-08-23T11:12:39.903Z,1.70
2023-08-23T11:15:09.897Z,1.40
2023-08-23T11:17:39.886Z,2.95
2023-08-23T11:20:11.268Z,1.35
2023-08-23T11:22:41.180Z,1.42
2023-08-23T11:25:10.768Z,1.85
2023-08-23T11:27:40.220Z,1.85
2023-08-23T11:30:11.357Z,1.77
2023-08-23T11:32:39.891Z,1.87
2023-08-23T11:35:09.995Z,1.60
2023-08-23T11:37:38.615Z,1.30
2023-08-23T11:40:10.951Z,1.60
2023-08-23T11:42:40.755Z,1.57
2023-08-23T11:45:11.625Z,1.50
2023-08-23T11:47:41.575Z,1.77
2023-08-23T11:50:11.743Z,1.82
2023-08-23T11:52:42.259Z,1.50
2023-08-23T11:55:11.715Z,1.62
2023-08-23T11:57:40.354Z,1.80
2023-08-23T12:00:11.292Z,2.47
2023-08-23T12:02:40.866Z,1.50
2023-08-23T12:05:14.649Z,1.40
2023-08-23T12:07:44.879Z,1.65
2023-08-23T12:10:13.837Z,1.45
2023-08-23T12:12:43.243Z,1.50
2023-08-23T12:15:12.367Z,1.42
2023-08-23T12:17:42.520Z,1.50
2023-08-23T12:20:12.787Z,1.40
2023-08-23T12:22:47.591Z,1.57
2023-08-23T12:25:17.754Z,1.30
2023-08-23T12:27:48.137Z,1.40
2023-08-23T12:30:19.284Z,1.27
2023-08-23T12:32:48.194Z,1.67
2023-08-23T12:35:16.961Z,2.92
2023-08-23T12:37:46.923Z,3.00
2023-08-23T12:40:17.094Z,1.92
2023-08-23T12:42:46.256Z,1.92
2023-08-23T12:45:15.794Z,1.50
2023-08-23T12:47:44.784Z,1.40
2023-08-23T12:50:14.353Z,1.60
2023-08-23T12:52:43.576Z,1.47
2023-08-23T12:55:13.072Z,1.60
2023-08-23T12:57:42.230Z,1.35
2023-08-23T13:00:29.146Z,1.40
2023-08-23T13:02:45.164Z,1.40
2023-08-23T13:05:14.756Z,1.52
2023-08-23T13:07:43.218Z,1.90
2023-08-23T13:10:14.120Z,1.67
2023-08-23T13:12:44.979Z,2.00
2023-08-23T13:15:15.090Z,1.52
2023-08-23T13:17:44.782Z,1.65
2023-08-23T13:20:13.688Z,1.62
2023-08-23T13:22:42.430Z,1.62
2023-08-23T13:25:12.385Z,1.92
2023-08-23T13:27:41.416Z,3.15
2023-08-23T13:30:12.119Z,3.87
2023-08-23T13:32:41.372Z,2.70
2023-08-23T13:35:10.659Z,2.35
2023-08-23T13:37:39.312Z,3.27
2023-08-23T13:40:12.476Z,3.00
2023-08-23T13:42:42.875Z,3.47
2023-08-23T13:45:12.557Z,4.25
2023-08-23T13:47:41.679Z,5.00
2023-08-23T13:50:12.267Z,2.92
2023-08-23T13:52:41.074Z,2.22
2023-08-23T13:55:10.974Z,2.75
2023-08-23T13:57:39.884Z,2.20
2023-08-23T14:00:09.780Z,1.80
2023-08-23T14:02:38.443Z,1.77
2023-08-23T14:05:08.888Z,1.62
2023-08-23T14:07:38.930Z,1.70
2023-08-23T14:10:09.204Z,1.92
2023-08-23T14:12:37.899Z,1.42
2023-08-23T14:15:08.223Z,1.40
2023-08-23T14:17:36.826Z,1.35
2023-08-23T14:20:09.009Z,1.30
2023-08-23T14:22:38.831Z,1.67
2023-08-23T14:25:09.367Z,1.50
2023-08-23T14:27:39.016Z,2.47
2023-08-23T14:30:10.794Z,1.77
2023-08-23T14:32:39.623Z,1.60
2023-08-23T14:35:10.898Z,1.50
2023-08-23T14:37:39.962Z,1.65
2023-08-23T14:40:12.522Z,1.47
2023-08-23T14:42:43.481Z,1.70
2023-08-23T14:45:13.419Z,1.90
2023-08-23T14:47:42.358Z,1.70
2023-08-23T14:50:11.436Z,2.08
2023-08-23T14:52:41.611Z,1.60
2023-08-23T14:55:13.573Z,1.67
2023-08-23T14:57:44.371Z,1.42
2023-08-23T15:00:15.189Z,1.40
2023-08-23T15:02:44.433Z,1.65
2023-08-23T15:05:13.664Z,1.55
2023-08-23T15:07:43.230Z,1.52
2023-08-23T15:10:12.555Z,1.80
2023-08-23T15:12:45.906Z,1.40
2023-08-23T15:15:17.162Z,1.55
2023-08-23T15:17:47.315Z,1.70
2023-08-23T15:20:16.965Z,1.57
2023-08-23T15:22:47.293Z,1.47
2023-08-23T15:25:16.405Z,1.35
2023-08-23T15:27:45.502Z,1.37
2023-08-23T15:30:14.730Z,1.37
2023-08-23T15:32:45.366Z,1.32
2023-08-23T15:35:14.219Z,1.87
2023-08-23T15:37:43.961Z,1.27
2023-08-23T15:40:13.041Z,1.52
2023-08-23T15:42:42.826Z,1.65
2023-08-23T15:45:12.233Z,1.70
2023-08-23T15:47:41.218Z,1.57
2023-08-23T15:50:11.110Z,1.98
2023-08-23T15:52:40.064Z,1.70
2023-08-23T15:55:10.889Z,1.42
2023-08-23T15:57:41.455Z,1.90
2023-08-23T16:00:12.838Z,1.70
2023-08-23T16:02:41.928Z,1.70
2023-08-23T16:05:11.805Z,1.72
2023-08-23T16:07:42.354Z,1.82
2023-08-23T16:10:12.797Z,2.08
2023-08-23T16:12:41.676Z,1.80
2023-08-23T16:15:12.429Z,1.40
2023-08-23T16:17:42.368Z,1.60
2023-08-23T16:20:11.987Z,1.90
2023-08-23T16:22:41.435Z,1.80
2023-08-23T16:25:11.675Z,2.00
2023-08-23T16:27:40.303Z,2.00
2023-08-23T16:30:11.017Z,1.92
2023-08-23T16:32:40.824Z,1.70
2023-08-23T16:35:11.092Z,1.92
2023-08-23T16:37:41.840Z,1.70
2023-08-23T16:40:12.522Z,1.90
2023-08-23T16:42:45.685Z,1.75
2023-08-23T16:45:15.924Z,2.10
2023-08-23T16:47:45.491Z,2.10
2023-08-23T16:50:14.373Z,2.30
2023-08-23T16:52:43.339Z,2.30
2023-08-23T16:55:12.969Z,2.08
2023-08-23T16:57:42.448Z,1.80
2023-08-23T17:00:14.305Z,2.47
2023-08-23T17:02:45.640Z,2.20
2023-08-23T17:05:15.396Z,2.35
2023-08-23T17:07:44.618Z,2.30
2023-08-23T17:10:14.121Z,1.92
2023-08-23T17:12:43.332Z,2.35
2023-08-23T17:15:13.883Z,1.65
2023-08-23T17:17:43.676Z,2.00
2023-08-23T17:20:14.457Z,1.85
2023-08-23T17:22:44.480Z,2.08
2023-08-23T17:25:14.347Z,1.90
2023-08-23T17:27:44.036Z,1.90
2023-08-23T17:30:14.555Z,2.15
2023-08-23T17:32:44.634Z,2.10
2023-08-23T17:35:13.893Z,1.90
2023-08-23T17:37:44.152Z,2.12
2023-08-23T17:40:14.822Z,2.40
2023-08-23T17:42:45.102Z,2.60
2023-08-23T17:45:14.984Z,2.00
2023-08-23T17:47:43.892Z,2.30
2023-08-23T17:50:13.163Z,2.08
2023-08-23T17:52:42.363Z,1.90
2023-08-23T17:55:13.218Z,2.00
2023-08-23T17:57:42.578Z,2.30
2023-08-23T18:00:21.394Z,2.22
2023-08-23T18:02:53.501Z,2.10
2023-08-23T18:05:22.954Z,2.27
2023-08-23T18:07:52.880Z,2.22
2023-08-23T18:10:21.329Z,2.10
2023-08-23T18:12:51.918Z,2.27
2023-08-23T18:15:21.577Z,2.20
2023-08-23T18:17:51.634Z,1.98
2023-08-23T18:20:20.925Z,2.12
2023-08-23T18:22:50.428Z,2.02
2023-08-23T18:25:20.269Z,2.08
2023-08-23T18:27:50.726Z,2.52
2023-08-23T18:30:20.575Z,2.60
2023-08-23T18:32:50.057Z,2.60
2023-08-23T18:35:21.093Z,2.20
2023-08-23T18:37:50.272Z,2.37
2023-08-23T18:40:20.990Z,2.10
2023-08-23T18:42:50.989Z,2.37
2023-08-23T18:45:20.848Z,2.75
2023-08-23T18:47:50.401Z,2.40
2023-08-23T18:50:20.269Z,2.52
2023-08-23T18:52:51.525Z,2.33
2023-08-23T18:55:20.810Z,2.85
2023-08-23T18:57:49.637Z,2.87
2023-08-23T19:00:19.618Z,2.72
2023-08-23T19:02:48.615Z,3.05
2023-08-23T19:05:19.853Z,2.87
2023-08-23T19:07:50.613Z,3.22
2023-08-23T19:10:19.888Z,2.80
2023-08-23T19:12:48.908Z,3.20
2023-08-23T19:15:18.917Z,3.33
2023-08-23T19:17:49.655Z,2.75
2023-08-23T19:20:18.332Z,3.17
2023-08-23T19:22:47.949Z,2.80
2023-08-23T19:25:18.070Z,2.70
2023-08-23T19:27:49.096Z,2.55
2023-08-23T19:30:21.611Z,2.37
2023-08-23T19:32:51.784Z,2.67
2023-08-23T19:35:20.879Z,2.52
2023-08-23T19:37:51.516Z,2.05
2023-08-23T19:40:20.650Z,2.70
2023-08-23T19:42:50.445Z,2.10
2023-08-23T19:45:19.768Z,2.33
2023-08-23T19:47:49.842Z,2.02
2023-08-23T19:50:19.873Z,2.42
2023-08-23T19:52:50.162Z,2.50
2023-08-23T19:55:19.939Z,2.33
2023-08-23T19:57:49.009Z,2.20
2023-08-23T20:00:18.942Z,2.52
2023-08-23T20:02:49.943Z,2.42
2023-08-23T20:05:20.182Z,2.65
2023-08-23T20:07:49.801Z,2.60
2023-08-23T20:10:19.922Z,2.35
2023-08-23T20:12:49.053Z,2.02
2023-08-23T20:15:18.475Z,2.55
2023-08-23T20:17:47.819Z,2.50
2023-08-23T20:20:18.075Z,2.62
2023-08-23T20:22:47.354Z,2.85
2023-08-23T20:25:18.202Z,2.67
2023-08-23T20:27:48.596Z,2.67
2023-08-23T20:30:18.303Z,2.60
2023-08-23T20:32:49.656Z,2.77
2023-08-23T20:35:18.625Z,2.70
2023-08-23T20:37:50.742Z,3.10
2023-08-23T20:40:21.581Z,2.80
2023-08-23T20:42:51.146Z,3.05
2023-08-23T20:45:22.943Z,3.20
2023-08-23T20:47:52.453Z,3.27
2023-08-23T20:50:22.579Z,3.10
2023-08-23T20:52:52.893Z,3.12
2023-08-23T20:55:22.000Z,3.20
2023-08-23T20:57:53.552Z,4.40
2023-08-23T21:00:23.540Z,4.40
2023-08-23T21:02:53.247Z,3.52
2023-08-23T21:05:22.722Z,2.90
2023-08-23T21:07:52.835Z,2.80
2023-08-23T21:10:22.896Z,2.70
2023-08-23T21:12:52.334Z,2.40
2023-08-23T21:15:22.150Z,2.67
2023-08-23T21:17:52.163Z,2.62
2023-08-23T21:20:21.458Z,2.60
2023-08-23T21:22:50.570Z,2.80
2023-08-23T21:25:20.635Z,2.90
2023-08-23T21:27:50.638Z,2.80
2023-08-23T21:30:20.511Z,2.90
2023-08-23T21:32:49.476Z,3.20
2023-08-23T21:35:18.473Z,2.80
2023-08-23T21:37:48.364Z,3.30
2023-08-23T21:40:18.505Z,3.08
2023-08-23T21:42:48.627Z,3.00
2023-08-23T21:45:18.865Z,3.15
2023-08-23T21:47:47.490Z,3.05
2023-08-23T21:50:16.956Z,3.02
2023-08-23T21:52:46.113Z,3.15
2023-08-23T21:55:16.031Z,2.72
2023-08-23T21:57:45.575Z,3.27
2023-08-23T22:00:15.804Z,3.10
2023-08-23T22:02:44.550Z,3.00
2023-08-23T22:05:14.681Z,2.80
2023-08-23T22:07:44.591Z,2.75
2023-08-23T22:10:13.777Z,2.50
2023-08-23T22:12:42.661Z,2.90
2023-08-23T22:15:12.728Z,2.60
2023-08-23T22:17:43.050Z,2.72
2023-08-23T22:20:15.285Z,3.02
2023-08-23T22:22:44.239Z,2.37
2023-08-23T22:25:13.932Z,2.58
2023-08-23T22:27:42.908Z,2.33
2023-08-23T22:30:12.769Z,2.45
2023-08-23T22:32:42.313Z,2.30
2023-08-23T22:35:12.656Z,1.98
2023-08-23T22:37:42.259Z,2.35
2023-08-23T22:40:12.462Z,2.98
2023-08-23T22:42:41.707Z,2.20
2023-08-23T22:45:11.390Z,2.50
2023-08-23T22:47:40.982Z,2.20
2023-08-23T22:50:10.960Z,2.70
2023-08-23T22:52:39.481Z,2.83
2023-08-23T22:55:10.534Z,2.47
2023-08-23T22:57:41.955Z,2.47
2023-08-23T23:00:11.813Z,2.17
2023-08-23T23:02:44.052Z,2.60
2023-08-23T23:05:14.295Z,2.22
2023-08-23T23:07:44.913Z,2.40
2023-08-23T23:10:15.128Z,2.67
2023-08-23T23:12:44.204Z,2.30
2023-08-23T23:15:16.665Z,2.72
2023-08-23T23:17:47.653Z,2.58
2023-08-23T23:20:17.493Z,2.42
2023-08-23T23:22:47.129Z,2.25
2023-08-23T23:25:16.211Z,2.50
2023-08-23T23:27:45.682Z,2.47
2023-08-23T23:30:16.698Z,3.20
2023-08-23T23:32:46.764Z,3.00
2023-08-23T23:35:16.546Z,2.80
2023-08-23T23:37:46.766Z,2.90
2023-08-23T23:40:16.238Z,3.30
2023-08-23T23:42:45.233Z,3.27
2023-08-23T23:45:15.739Z,3.00
2023-08-23T23:47:44.732Z,2.80
2023-08-23T23:50:13.308Z,2.98
2023-08-23T23:52:42.629Z,3.00
2023-08-23T23:55:11.364Z,2.83
2023-08-23T23:57:40.219Z,3.30
